Etusivu
METAR-TAF:

METAR-TAF

Lentoasemat :

Gambell, Alaska, Yhdysvallat

Leveyspiiri: 63-46N, Pituuspiiri: 171-44W, korkeus merenpinnasta: 8 m

Tämänhetkinen sää

Tämä raportti tehtiin 28 minuuttia sitten, kello 20.56 UTC
Tuuli 22 kn pohjoisesta/koillisesta
Lämpötila 7°C
Kosteus 87%
Ilmanpaine 1018 hPa
Näkyvyys: 16.1 km
Pilvistä 1000 ft:n korkeudessa

METAR: PAGM 202056Z AUTO 03022KT 10SM OVC010 07/05 A3006 RMK AO2 PK WND 03029/2001 SLP187 T00720050 53006

Aika: 13:24 (21:24 UTC)


TAF: puuttuu

Säähavainnot ja -ennusteet yli 4000 lentoasemalta (METAR- ja TAF-raportit).

Käytössä olevat sääasemat on merkitty karttaan keltaisilla ja punaisilla pisteillä.

Aseta hiiri pisteen päälle nähdäksesi sääaseman nimen.

Klikkaa sitten nähdäksesi säähavainnot ja -ennusteet.

Kartan vaihtaminen: klikkaa mustalla rastilla varustettuja vihreitä pisteitä, niin voit zoomata sisään; viivalla varustettua vihreää pistettä, niin voit zoomata ulos tai vihreitä nuolia, niin pääset viereisille kartoille.


METAR-TAF: